Terminal Aerodrome Forecast
Issued by NWS

Home | Current Version | Previous Version | Text Only | Print | Product List | Glossary On
Versions: 1 2 3 4 5 6 7 8 9 10 11 12 13 14 15 16 17 18 19
238
FTPA31 PHFO 261734 AAA
TAFHTO
TAF AMD
PHTO 261734Z 2618/2718 24005KT P6SM FEW030 SCT040
     FM262000 08008KT P6SM VCSH SCT030 BKN045
     FM270600 23005KT P6SM FEW030 SCT045=

USA.gov is the U.S. government's official web portal to all federal, state and local government web resources and services.